createdAt,value
2023-04-23T00:00:16.258Z,100521.66
2023-04-23T00:02:49.253Z,100524.97
2023-04-23T00:05:17.613Z,100531.09
2023-04-23T00:07:46.400Z,100542.16
2023-04-23T00:10:14.980Z,100538.03
2023-04-23T00:12:44.048Z,100539.44
2023-04-23T00:15:14.236Z,100542.63
2023-04-23T00:17:42.973Z,100549.03
2023-04-23T00:20:11.343Z,100558.47
2023-04-23T00:22:39.665Z,100553.31
2023-04-23T00:25:09.090Z,100555.53
2023-04-23T00:27:38.259Z,100559.00
2023-04-23T00:30:07.503Z,100562.06
2023-04-23T00:32:42.729Z,100562.00
2023-04-23T00:35:10.997Z,100555.50
2023-04-23T00:37:39.468Z,100561.47
2023-04-23T00:40:08.529Z,100570.72
2023-04-23T00:42:38.986Z,100568.47
2023-04-23T00:45:10.608Z,100565.31
2023-04-23T00:47:44.251Z,100552.69
2023-04-23T00:50:13.506Z,100560.28
2023-04-23T00:52:44.483Z,100555.78
2023-04-23T00:55:12.745Z,100562.59
2023-04-23T00:57:41.241Z,100557.59
2023-04-23T01:00:15.188Z,100557.13
2023-04-23T01:02:44.783Z,100559.13
2023-04-23T01:05:14.082Z,100567.44
2023-04-23T01:07:45.177Z,100560.72
2023-04-23T01:10:13.704Z,100563.00
2023-04-23T01:12:42.597Z,100566.94
2023-04-23T01:15:11.185Z,100563.28
2023-04-23T01:17:39.861Z,100573.41
2023-04-23T01:20:08.911Z,100570.06
2023-04-23T01:22:38.068Z,100564.03
2023-04-23T01:25:08.368Z,100560.84
2023-04-23T01:27:36.652Z,100565.59
2023-04-23T01:30:06.261Z,100559.78
2023-04-23T01:32:35.915Z,100562.47
2023-04-23T01:35:05.034Z,100560.81
2023-04-23T01:37:34.738Z,100566.44
2023-04-23T01:40:03.068Z,100564.78
2023-04-23T01:42:32.042Z,100559.66
2023-04-23T01:45:00.203Z,100551.22
2023-04-23T01:47:28.621Z,100563.03
2023-04-23T01:49:56.779Z,100561.56
2023-04-23T01:52:24.897Z,100562.78
2023-04-23T01:54:53.306Z,100561.06
2023-04-23T01:57:24.714Z,100549.53
2023-04-23T02:00:08.940Z,100556.00
2023-04-23T02:02:41.571Z,100558.72
2023-04-23T02:05:12.929Z,100555.47
2023-04-23T02:07:41.652Z,100557.44
2023-04-23T02:10:10.347Z,100557.66
2023-04-23T02:12:39.690Z,100563.59
2023-04-23T02:15:08.899Z,100566.31
2023-04-23T02:17:37.398Z,100555.72
2023-04-23T02:20:06.903Z,100563.84
2023-04-23T02:22:34.994Z,100565.56
2023-04-23T02:25:03.210Z,100566.25
2023-04-23T02:27:32.661Z,100563.59
2023-04-23T02:30:01.062Z,100566.16
2023-04-23T02:32:29.089Z,100567.00
2023-04-23T02:34:59.994Z,100562.78
2023-04-23T02:37:32.393Z,100560.81
2023-04-23T02:40:00.600Z,100554.44
2023-04-23T02:42:28.880Z,100565.81
2023-04-23T02:44:56.825Z,100576.31
2023-04-23T02:47:25.269Z,100577.94
2023-04-23T02:49:53.849Z,100579.66
2023-04-23T02:52:22.169Z,100582.94
2023-04-23T02:54:50.288Z,100582.75
2023-04-23T02:57:18.281Z,100588.53
2023-04-23T02:59:46.705Z,100597.91
2023-04-23T03:02:14.857Z,100595.72
2023-04-23T03:04:44.392Z,100599.59
2023-04-23T03:07:13.733Z,100606.22
2023-04-23T03:09:43.209Z,100601.06
2023-04-23T03:12:11.089Z,100606.19
2023-04-23T03:14:40.971Z,100607.13
2023-04-23T03:17:11.492Z,100603.72
2023-04-23T03:19:41.704Z,100604.34
2023-04-23T03:22:09.834Z,100603.38
2023-04-23T03:24:38.004Z,100598.72
2023-04-23T03:27:09.737Z,100606.38
2023-04-23T03:29:40.457Z,100598.81
2023-04-23T03:32:08.430Z,100597.06
2023-04-23T03:34:36.643Z,100608.03
2023-04-23T03:37:04.712Z,100609.31
2023-04-23T03:39:33.984Z,100618.00
2023-04-23T03:42:02.355Z,100625.03
2023-04-23T03:44:30.527Z,100631.34
2023-04-23T03:46:58.790Z,100628.75
2023-04-23T03:49:27.851Z,100625.00
2023-04-23T03:51:55.920Z,100635.69
2023-04-23T03:54:26.080Z,100637.94
2023-04-23T03:56:55.033Z,100634.44
2023-04-23T03:59:23.188Z,100642.25
2023-04-23T04:01:51.299Z,100641.84
2023-04-23T04:04:19.919Z,100649.34
2023-04-23T04:06:48.427Z,100638.78
2023-04-23T04:09:18.394Z,100650.25
2023-04-23T04:11:46.443Z,100655.97
2023-04-23T04:14:14.943Z,100659.41
2023-04-23T04:16:43.312Z,100654.69
2023-04-23T04:19:11.472Z,100662.09
2023-04-23T04:21:41.615Z,100661.44
2023-04-23T04:24:11.738Z,100665.75
2023-04-23T04:26:40.683Z,100668.06
2023-04-23T04:29:11.186Z,100672.91
2023-04-23T04:31:39.654Z,100668.88
2023-04-23T04:34:09.361Z,100676.06
2023-04-23T04:36:37.479Z,100675.47
2023-04-23T04:39:05.711Z,100669.94
2023-04-23T04:41:34.065Z,100683.84
2023-04-23T04:44:02.332Z,100687.53
2023-04-23T04:46:32.544Z,100682.75
2023-04-23T04:49:01.198Z,100683.19
2023-04-23T04:51:54.617Z,100690.53
2023-04-23T04:54:22.477Z,100692.22
2023-04-23T04:56:50.716Z,100696.91
2023-04-23T04:59:20.265Z,100695.16
2023-04-23T05:01:48.986Z,100697.72
2023-04-23T05:04:17.271Z,100705.59
2023-04-23T05:06:45.900Z,100690.25
2023-04-23T05:09:14.157Z,100693.72
2023-04-23T05:11:42.182Z,100701.69
2023-04-23T05:14:10.545Z,100700.88
2023-04-23T05:16:38.651Z,100701.41
2023-04-23T05:19:06.761Z,100704.81
2023-04-23T05:21:34.905Z,100695.28
2023-04-23T05:24:03.542Z,100698.69
2023-04-23T05:26:32.325Z,100694.53
2023-04-23T05:29:00.630Z,100700.00
2023-04-23T05:31:29.438Z,100699.03
2023-04-23T05:33:57.837Z,100701.69
2023-04-23T05:36:26.339Z,100709.72
2023-04-23T05:38:54.406Z,100715.75
2023-04-23T05:41:22.507Z,100722.84
2023-04-23T05:43:50.745Z,100721.16
2023-04-23T05:46:19.671Z,100722.47
2023-04-23T05:48:48.114Z,100723.16
2023-04-23T05:51:17.553Z,100717.69
2023-04-23T05:53:46.033Z,100727.06
2023-04-23T05:56:14.119Z,100731.97
2023-04-23T05:58:42.112Z,100732.44
2023-04-23T06:01:10.474Z,100727.13
2023-04-23T06:03:38.890Z,100731.28
2023-04-23T06:06:07.458Z,100732.88
2023-04-23T06:08:39.120Z,100739.88
2023-04-23T06:11:08.030Z,100740.66
2023-04-23T06:13:43.646Z,100747.88
2023-04-23T06:16:14.982Z,100740.16
2023-04-23T06:18:46.246Z,100748.75
2023-04-23T06:21:14.681Z,100747.72
2023-04-23T06:23:42.822Z,100759.97
2023-04-23T06:26:11.046Z,100763.00
2023-04-23T06:28:42.691Z,100769.50
2023-04-23T06:31:11.456Z,100769.09
2023-04-23T06:33:40.229Z,100765.94
2023-04-23T06:36:11.606Z,100757.00
2023-04-23T06:38:40.203Z,100761.84
2023-04-23T06:41:08.508Z,100767.44
2023-04-23T06:43:36.676Z,100769.97
2023-04-23T06:46:04.809Z,100758.53
2023-04-23T06:48:33.176Z,100770.44
2023-04-23T06:51:01.647Z,100767.19
2023-04-23T06:53:32.351Z,100777.03
2023-04-23T06:56:00.584Z,100784.38
2023-04-23T06:58:32.466Z,100782.00
2023-04-23T07:01:00.951Z,100786.31
2023-04-23T07:03:29.713Z,100774.34
2023-04-23T07:05:58.111Z,100776.53
2023-04-23T07:08:26.344Z,100786.47
2023-04-23T07:10:55.136Z,100782.03
2023-04-23T07:13:24.633Z,100781.38
2023-04-23T07:15:52.794Z,100776.25
2023-04-23T07:18:20.880Z,100785.09
2023-04-23T07:20:48.924Z,100785.91
2023-04-23T07:23:18.906Z,100784.75
2023-04-23T07:25:51.599Z,100784.56
2023-04-23T07:28:22.549Z,100784.31
2023-04-23T07:30:51.152Z,100783.06
2023-04-23T07:33:20.171Z,100786.13
2023-04-23T07:35:48.867Z,100784.69
2023-04-23T07:38:16.780Z,100793.50
2023-04-23T07:40:45.083Z,100793.13
2023-04-23T07:43:14.318Z,100790.88
2023-04-23T07:45:42.540Z,100789.13
2023-04-23T07:48:11.557Z,100791.56
2023-04-23T07:50:39.821Z,100792.03
2023-04-23T07:53:08.026Z,100784.13
2023-04-23T07:55:37.089Z,100782.84
2023-04-23T07:58:05.132Z,100786.13
2023-04-23T08:00:33.885Z,100792.03
2023-04-23T08:03:01.993Z,100787.19
2023-04-23T08:05:30.307Z,100786.38
2023-04-23T08:08:00.226Z,100788.22
2023-04-23T08:10:28.091Z,100789.34
2023-04-23T08:12:56.239Z,100789.91
2023-04-23T08:15:24.713Z,100779.56
2023-04-23T08:17:52.783Z,100784.00
2023-04-23T08:20:21.016Z,100794.31
2023-04-23T08:22:53.530Z,100782.91
2023-04-23T08:25:21.765Z,100776.59
2023-04-23T08:27:50.601Z,100782.94
2023-04-23T08:30:18.838Z,100776.69
2023-04-23T08:32:50.195Z,100772.06
2023-04-23T08:35:18.683Z,100782.34
2023-04-23T08:37:47.439Z,100770.38
2023-04-23T08:40:15.888Z,100776.50
2023-04-23T08:42:59.149Z,100772.16
2023-04-23T08:45:27.375Z,100773.75
2023-04-23T08:48:02.368Z,100765.25
2023-04-23T08:50:31.907Z,100775.13
2023-04-23T08:53:00.555Z,100771.84
2023-04-23T08:55:28.642Z,100769.66
2023-04-23T08:57:59.615Z,100776.84
2023-04-23T09:00:30.392Z,100769.97
2023-04-23T09:02:59.519Z,100769.06
2023-04-23T09:05:29.713Z,100766.88
2023-04-23T09:07:59.945Z,100771.19
2023-04-23T09:10:28.074Z,100758.31
2023-04-23T09:12:56.239Z,100763.78
2023-04-23T09:15:27.901Z,100763.25
2023-04-23T09:17:57.313Z,100753.19
2023-04-23T09:20:26.246Z,100753.03
2023-04-23T09:22:56.523Z,100741.78
2023-04-23T09:25:24.991Z,100756.28
2023-04-23T09:27:53.958Z,100741.28
2023-04-23T09:30:26.989Z,100746.91
2023-04-23T09:32:55.557Z,100746.72
2023-04-23T09:35:23.745Z,100740.75
2023-04-23T09:37:53.722Z,100737.88
2023-04-23T09:40:24.347Z,100734.31
2023-04-23T09:42:55.014Z,100733.28
2023-04-23T09:45:26.016Z,100726.13
2023-04-23T09:47:56.000Z,100730.69
2023-04-23T09:50:40.083Z,100722.69
2023-04-23T09:53:10.101Z,100725.25
2023-04-23T09:55:40.223Z,100732.78
2023-04-23T09:58:12.959Z,100724.72
2023-04-23T10:00:41.960Z,100719.13
2023-04-23T10:03:11.363Z,100716.00
2023-04-23T10:08:14.332Z,100712.41
2023-04-23T10:10:59.490Z,100706.94
2023-04-23T10:13:31.657Z,100706.44
2023-04-23T10:16:10.248Z,100712.75
2023-04-23T10:18:46.937Z,100708.34
2023-04-23T10:21:16.737Z,100710.41
2023-04-23T10:23:48.623Z,100706.44
2023-04-23T10:26:17.343Z,100710.22
2023-04-23T10:28:49.366Z,100707.44
2023-04-23T10:31:20.039Z,100711.91
2023-04-23T10:33:59.070Z,100705.41
2023-04-23T10:36:28.510Z,100691.91
2023-04-23T10:39:00.495Z,100692.25
2023-04-23T10:41:36.807Z,100699.94
2023-04-23T10:44:06.286Z,100699.13
2023-04-23T10:46:37.783Z,100695.41
2023-04-23T10:49:17.000Z,100690.09
2023-04-23T10:54:20.233Z,100690.25
2023-04-23T10:57:02.209Z,100690.88
2023-04-23T10:59:31.706Z,100686.78
2023-04-23T11:02:07.099Z,100684.53
2023-04-23T11:04:37.450Z,100684.19
2023-04-23T11:07:10.110Z,100679.94
2023-04-23T11:09:48.270Z,100681.28
2023-04-23T11:12:25.712Z,100683.50
2023-04-23T11:14:55.504Z,100679.75
2023-04-23T11:17:29.031Z,100672.25
2023-04-23T11:20:10.871Z,100673.84
2023-04-23T11:22:44.923Z,100675.34
2023-04-23T11:25:14.856Z,100678.75
2023-04-23T11:27:44.899Z,100673.72
2023-04-23T11:30:18.060Z,100667.94
2023-04-23T11:32:50.605Z,100676.91
2023-04-23T11:35:24.011Z,100664.22
2023-04-23T11:37:52.734Z,100666.75
2023-04-23T11:40:22.170Z,100664.31
2023-04-23T11:42:55.469Z,100667.44
2023-04-23T11:45:25.914Z,100666.78
2023-04-23T11:47:59.352Z,100667.31
2023-04-23T11:50:30.894Z,100657.91
2023-04-23T11:53:04.560Z,100654.19
2023-04-23T11:55:32.750Z,100654.41
2023-04-23T11:58:00.998Z,100663.84
2023-04-23T12:00:29.292Z,100657.50
2023-04-23T12:03:10.536Z,100655.44
2023-04-23T12:05:45.919Z,100665.16
2023-04-23T12:08:17.599Z,100671.53
2023-04-23T12:10:53.536Z,100672.66
2023-04-23T12:13:31.204Z,100679.47
2023-04-23T12:16:01.570Z,100689.69
2023-04-23T12:18:41.080Z,100695.53
2023-04-23T12:21:14.140Z,100699.59
2023-04-23T12:23:45.474Z,100713.31
2023-04-23T12:26:17.164Z,100724.09
2023-04-23T12:28:59.458Z,100738.88
2023-04-23T12:31:30.120Z,100750.50
2023-04-23T12:34:09.635Z,100758.88
2023-04-23T12:36:40.072Z,100768.81
2023-04-23T12:39:32.359Z,100777.78
2023-04-23T12:42:10.113Z,100794.84
2023-04-23T12:44:39.163Z,100786.69
2023-04-23T12:47:09.176Z,100818.59
2023-04-23T12:49:38.638Z,100796.09
2023-04-23T12:52:07.220Z,100806.06
2023-04-23T12:54:37.867Z,100786.94
2023-04-23T12:57:08.272Z,100789.00
2023-04-23T12:59:36.788Z,100793.66
2023-04-23T13:02:07.957Z,100786.53
2023-04-23T13:04:37.242Z,100794.63
2023-04-23T13:07:06.472Z,100805.53
2023-04-23T13:09:36.349Z,100821.84
2023-04-23T13:12:04.878Z,100807.78
2023-04-23T13:14:33.079Z,100822.72
2023-04-23T13:17:01.626Z,100811.06
2023-04-23T13:19:30.165Z,100811.25
2023-04-23T13:22:01.597Z,100807.34
2023-04-23T13:24:29.644Z,100804.50
2023-04-23T13:26:57.655Z,100799.31
2023-04-23T13:29:29.590Z,100803.00
2023-04-23T13:32:00.958Z,100809.09
2023-04-23T13:34:29.520Z,100799.91
2023-04-23T13:36:58.912Z,100802.69
2023-04-23T13:39:27.094Z,100801.69
2023-04-23T13:42:08.917Z,100786.47
2023-04-23T13:44:39.951Z,100792.97
2023-04-23T13:47:09.001Z,100788.81
2023-04-23T13:49:39.745Z,100782.22
2023-04-23T13:52:09.605Z,100773.44
2023-04-23T13:54:38.071Z,100766.47
2023-04-23T13:57:07.408Z,100760.97
2023-04-23T13:59:36.601Z,100752.88
2023-04-23T14:02:04.846Z,100755.56
2023-04-23T14:04:32.948Z,100739.41
2023-04-23T14:07:01.414Z,100734.97
2023-04-23T14:09:30.311Z,100730.03
2023-04-23T14:11:59.017Z,100740.44
2023-04-23T14:14:27.727Z,100730.38
2023-04-23T14:16:56.456Z,100725.56
2023-04-23T14:19:27.150Z,100717.69
2023-04-23T14:21:56.552Z,100729.47
2023-04-23T14:24:30.010Z,100716.41
2023-04-23T14:26:58.715Z,100717.00
2023-04-23T14:29:47.175Z,100712.25
2023-04-23T14:32:15.071Z,100710.34
2023-04-23T14:34:51.885Z,100706.16
2023-04-23T14:37:21.705Z,100711.31
2023-04-23T14:39:52.398Z,100706.06
2023-04-23T14:42:20.421Z,100703.94
2023-04-23T14:44:57.143Z,100703.34
2023-04-23T14:47:26.765Z,100693.53
2023-04-23T14:49:57.926Z,100696.97
2023-04-23T14:52:26.490Z,100700.44
2023-04-23T14:54:57.834Z,100698.41
2023-04-23T14:57:26.203Z,100696.28
2023-04-23T14:59:56.956Z,100697.56
2023-04-23T15:02:25.954Z,100698.56
2023-04-23T15:04:54.328Z,100692.41
2023-04-23T15:07:22.779Z,100699.28
2023-04-23T15:09:51.103Z,100696.44
2023-04-23T15:12:41.599Z,100696.28
2023-04-23T15:15:30.567Z,100692.44
2023-04-23T15:18:06.297Z,100685.03
2023-04-23T15:20:34.874Z,100695.00
2023-04-23T15:23:03.100Z,100688.00
2023-04-23T15:25:33.713Z,100684.88
2023-04-23T15:28:02.350Z,100681.16
2023-04-23T15:30:30.634Z,100690.25
2023-04-23T15:32:59.159Z,100695.91
2023-04-23T15:35:28.069Z,100683.22
2023-04-23T15:37:56.178Z,100697.16
2023-04-23T15:40:24.487Z,100690.91
2023-04-23T15:42:55.098Z,100691.91
2023-04-23T15:45:23.153Z,100694.72
2023-04-23T15:47:57.311Z,100692.88
2023-04-23T15:50:27.501Z,100697.03
2023-04-23T15:52:59.691Z,100695.06
2023-04-23T15:55:34.393Z,100702.50
2023-04-23T15:58:05.186Z,100703.09
2023-04-23T16:00:36.952Z,100705.78
2023-04-23T16:03:07.167Z,100706.97
2023-04-23T16:05:36.869Z,100694.13
2023-04-23T16:08:05.321Z,100693.69
2023-04-23T16:10:34.872Z,100694.38
2023-04-23T16:13:03.275Z,100697.25
2023-04-23T16:15:31.556Z,100697.53
2023-04-23T16:18:00.512Z,100697.66
2023-04-23T16:20:29.143Z,100698.78
2023-04-23T16:22:57.563Z,100704.34
2023-04-23T16:25:25.564Z,100708.44
2023-04-23T16:27:54.607Z,100709.69
2023-04-23T16:30:25.859Z,100709.41
2023-04-23T16:32:57.262Z,100708.81
2023-04-23T16:35:25.628Z,100696.72
2023-04-23T16:37:53.956Z,100706.94
2023-04-23T16:40:24.956Z,100709.91
2023-04-23T16:42:53.361Z,100701.94
2023-04-23T16:45:23.493Z,100709.56
2023-04-23T16:47:51.983Z,100707.25
2023-04-23T16:50:22.207Z,100708.25
2023-04-23T16:52:50.438Z,100715.53
2023-04-23T16:55:18.329Z,100715.66
2023-04-23T16:57:46.658Z,100714.06
2023-04-23T17:00:16.996Z,100707.22
2023-04-23T17:02:45.282Z,100712.63
2023-04-23T17:05:17.655Z,100718.28
2023-04-23T17:07:46.442Z,100723.72
2023-04-23T17:10:21.323Z,100722.16
2023-04-23T17:12:54.190Z,100722.25
2023-04-23T17:15:26.946Z,100727.66
2023-04-23T17:17:54.906Z,100733.47
2023-04-23T17:20:26.499Z,100729.47
2023-04-23T17:22:54.846Z,100734.03
2023-04-23T17:25:23.199Z,100744.63
2023-04-23T17:27:51.472Z,100741.75
2023-04-23T17:30:20.054Z,100734.94
2023-04-23T17:32:48.840Z,100753.44
2023-04-23T17:35:17.623Z,100761.75
2023-04-23T17:37:46.224Z,100754.06
2023-04-23T17:40:14.353Z,100753.94
2023-04-23T17:42:43.233Z,100761.53
2023-04-23T17:45:12.143Z,100761.66
2023-04-23T17:47:49.361Z,100757.50
2023-04-23T17:50:17.558Z,100763.13
2023-04-23T17:52:46.178Z,100762.06
2023-04-23T17:55:17.513Z,100765.88
2023-04-23T17:57:48.296Z,100761.47
2023-04-23T18:00:25.317Z,100759.34
2023-04-23T18:02:54.409Z,100762.66
2023-04-23T18:05:25.859Z,100761.81
2023-04-23T18:07:56.769Z,100772.00
2023-04-23T18:10:25.343Z,100763.78
2023-04-23T18:12:54.069Z,100759.13
2023-04-23T18:15:22.658Z,100753.72
2023-04-23T18:17:58.053Z,100745.28
2023-04-23T18:20:27.110Z,100748.69
2023-04-23T18:23:15.940Z,100755.81
2023-04-23T18:25:46.312Z,100746.25
2023-04-23T18:28:14.861Z,100751.53
2023-04-23T18:30:43.004Z,100752.97
2023-04-23T18:33:19.719Z,100748.31
2023-04-23T18:35:48.579Z,100753.94
2023-04-23T18:38:46.141Z,100746.47
2023-04-23T18:41:14.332Z,100743.25
2023-04-23T18:43:42.572Z,100747.94
2023-04-23T18:46:10.800Z,100755.25
2023-04-23T18:48:41.908Z,100754.53
2023-04-23T18:51:19.133Z,100749.28
2023-04-23T18:53:48.673Z,100758.09
2023-04-23T18:56:16.940Z,100752.69
2023-04-23T18:58:45.075Z,100750.97
2023-04-23T19:01:14.447Z,100757.94
2023-04-23T19:03:46.057Z,100746.69
2023-04-23T19:06:19.369Z,100756.97
2023-04-23T19:08:47.848Z,100746.53
2023-04-23T19:11:16.119Z,100753.00
2023-04-23T19:13:46.109Z,100747.25
2023-04-23T19:16:17.135Z,100739.72
2023-04-23T19:18:45.635Z,100742.13
2023-04-23T19:21:14.016Z,100745.41
2023-04-23T19:23:42.463Z,100746.25
2023-04-23T19:26:10.687Z,100754.41
2023-04-23T19:28:39.433Z,100749.88
2023-04-23T19:31:08.012Z,100753.97
2023-04-23T19:33:36.507Z,100751.16
2023-04-23T19:36:05.112Z,100748.44
2023-04-23T19:38:33.496Z,100751.28
2023-04-23T19:41:01.833Z,100745.13
2023-04-23T19:43:30.651Z,100746.31
2023-04-23T19:45:59.485Z,100751.94
2023-04-23T19:48:28.040Z,100746.28
2023-04-23T19:50:56.346Z,100744.16
2023-04-23T19:53:25.100Z,100743.03
2023-04-23T19:55:53.688Z,100747.34
2023-04-23T19:58:22.465Z,100744.63
2023-04-23T20:00:50.839Z,100744.00
2023-04-23T20:03:19.428Z,100742.19
2023-04-23T20:05:48.698Z,100741.38
2023-04-23T20:08:26.324Z,100746.44
2023-04-23T20:10:54.726Z,100745.34
2023-04-23T20:13:24.235Z,100744.81
2023-04-23T20:16:00.677Z,100743.50
2023-04-23T20:18:35.818Z,100745.00
2023-04-23T20:21:05.322Z,100742.09
2023-04-23T20:23:33.487Z,100737.69
2023-04-23T20:26:01.602Z,100735.00
2023-04-23T20:28:32.820Z,100734.47
2023-04-23T20:31:01.356Z,100729.19
2023-04-23T20:33:29.848Z,100723.16
2023-04-23T20:35:59.109Z,100730.28
2023-04-23T20:38:30.936Z,100723.59
2023-04-23T20:41:03.119Z,100728.53
2023-04-23T20:43:33.609Z,100715.66
2023-04-23T20:46:05.111Z,100717.69
2023-04-23T20:48:34.260Z,100721.63
2023-04-23T20:51:07.764Z,100722.78
2023-04-23T20:53:36.611Z,100722.91
2023-04-23T20:56:04.771Z,100713.34
2023-04-23T20:58:36.735Z,100712.88
2023-04-23T21:01:07.514Z,100712.44
2023-04-23T21:04:01.775Z,100722.66
2023-04-23T21:06:31.631Z,100721.97
2023-04-23T21:09:00.007Z,100716.94
2023-04-23T21:11:28.499Z,100714.25
2023-04-23T21:13:57.644Z,100714.44
2023-04-23T21:16:27.201Z,100714.75
2023-04-23T21:18:57.109Z,100713.34
2023-04-23T21:21:30.082Z,100719.94
2023-04-23T21:24:02.867Z,100716.53
2023-04-23T21:26:32.008Z,100726.59
2023-04-23T21:29:01.322Z,100716.72
2023-04-23T21:31:48.419Z,100722.28
2023-04-23T21:34:17.076Z,100728.72
2023-04-23T21:36:45.521Z,100720.88
2023-04-23T21:39:14.106Z,100723.75
2023-04-23T21:41:42.339Z,100724.16
2023-04-23T21:44:10.249Z,100720.69
2023-04-23T21:46:38.846Z,100727.03
2023-04-23T21:49:07.154Z,100721.34
2023-04-23T21:51:37.338Z,100714.28
2023-04-23T21:54:08.835Z,100715.25
2023-04-23T21:56:39.140Z,100713.72
2023-04-23T21:59:07.721Z,100711.34
2023-04-23T22:01:36.945Z,100718.59
2023-04-23T22:04:07.042Z,100725.13
2023-04-23T22:06:35.701Z,100718.25
2023-04-23T22:09:06.318Z,100719.31
2023-04-23T22:11:37.447Z,100716.81
2023-04-23T22:14:06.696Z,100715.19
2023-04-23T22:16:36.209Z,100711.66
2023-04-23T22:19:04.895Z,100713.47
2023-04-23T22:21:33.391Z,100717.97
2023-04-23T22:24:03.950Z,100725.34
2023-04-23T22:26:34.440Z,100719.50
2023-04-23T22:29:02.760Z,100723.16
2023-04-23T22:31:31.014Z,100724.97
2023-04-23T22:33:58.994Z,100709.97
2023-04-23T22:36:28.703Z,100714.84
2023-04-23T22:38:56.909Z,100717.69
2023-04-23T22:41:25.610Z,100709.66
2023-04-23T22:43:54.763Z,100711.75
2023-04-23T22:46:23.328Z,100712.72
2023-04-23T22:48:53.050Z,100708.38
2023-04-23T22:51:21.105Z,100710.22
2023-04-23T22:53:49.121Z,100706.84
2023-04-23T22:56:18.282Z,100708.69
2023-04-23T22:58:47.121Z,100708.56
2023-04-23T23:01:15.342Z,100707.63
2023-04-23T23:03:43.452Z,100700.81
2023-04-23T23:06:12.480Z,100699.22
2023-04-23T23:08:41.325Z,100698.16
2023-04-23T23:11:09.437Z,100702.56
2023-04-23T23:13:37.902Z,100703.31
2023-04-23T23:16:09.275Z,100699.59
2023-04-23T23:18:38.676Z,100706.69
2023-04-23T23:21:07.012Z,100701.03
2023-04-23T23:23:35.307Z,100699.88
2023-04-23T23:26:03.600Z,100689.75
2023-04-23T23:28:31.806Z,100691.84
2023-04-23T23:31:00.142Z,100696.28
2023-04-23T23:33:30.647Z,100687.44
2023-04-23T23:35:58.869Z,100696.28
2023-04-23T23:38:27.495Z,100685.44
2023-04-23T23:40:55.794Z,100699.59
2023-04-23T23:43:23.789Z,100692.50
2023-04-23T23:45:52.098Z,100691.19
2023-04-23T23:48:20.869Z,100691.00
2023-04-23T23:50:48.995Z,100690.13
2023-04-23T23:53:16.989Z,100691.19
2023-04-23T23:55:45.058Z,100699.41
2023-04-23T23:58:13.121Z,100700.56
